sensor_id;sensor_type;location;lat;lon;timestamp;P1;durP1;ratioP1;P2;durP2;ratioP2
22937;SDS011;11634;42.734;23.298;2022-12-10T00:00:42;19.25;;;9.40;;
22937;SDS011;11634;42.734;23.298;2022-12-10T00:03:08;19.13;;;9.77;;
22937;SDS011;11634;42.734;23.298;2022-12-10T00:05:34;14.95;;;8.25;;
22937;SDS011;11634;42.734;23.298;2022-12-10T00:08:00;15.02;;;8.05;;
22937;SDS011;11634;42.734;23.298;2022-12-10T00:10:27;19.55;;;10.73;;
22937;SDS011;11634;42.734;23.298;2022-12-10T00:12:54;22.00;;;8.98;;
22937;SDS011;11634;42.734;23.298;2022-12-10T00:15:20;21.98;;;8.63;;
22937;SDS011;11634;42.734;23.298;2022-12-10T00:17:50;17.58;;;9.80;;
22937;SDS011;11634;42.734;23.298;2022-12-10T00:20:18;18.13;;;8.95;;
22937;SDS011;11634;42.734;23.298;2022-12-10T00:22:46;19.23;;;9.70;;
22937;SDS011;11634;42.734;23.298;2022-12-10T00:25:15;18.55;;;9.98;;
22937;SDS011;11634;42.734;23.298;2022-12-10T00:27:40;17.90;;;9.90;;
22937;SDS011;11634;42.734;23.298;2022-12-10T00:30:06;19.55;;;9.77;;
22937;SDS011;11634;42.734;23.298;2022-12-10T00:32:32;17.38;;;8.95;;
22937;SDS011;11634;42.734;23.298;2022-12-10T00:34:58;13.73;;;8.48;;
22937;SDS011;11634;42.734;23.298;2022-12-10T00:37:23;25.42;;;9.25;;
22937;SDS011;11634;42.734;23.298;2022-12-10T00:39:49;10.27;;;5.05;;
22937;SDS011;11634;42.734;23.298;2022-12-10T00:42:14;12.90;;;6.30;;
22937;SDS011;11634;42.734;23.298;2022-12-10T00:44:41;14.85;;;7.47;;
22937;SDS011;11634;42.734;23.298;2022-12-10T00:47:07;15.10;;;7.68;;
22937;SDS011;11634;42.734;23.298;2022-12-10T00:49:33;15.07;;;6.53;;
22937;SDS011;11634;42.734;23.298;2022-12-10T00:51:58;11.70;;;5.75;;
22937;SDS011;11634;42.734;23.298;2022-12-10T00:54:24;17.15;;;6.28;;
22937;SDS011;11634;42.734;23.298;2022-12-10T00:56:49;14.38;;;6.60;;
22937;SDS011;11634;42.734;23.298;2022-12-10T00:59:15;12.60;;;5.45;;
22937;SDS011;11634;42.734;23.298;2022-12-10T01:01:41;13.15;;;5.93;;
22937;SDS011;11634;42.734;23.298;2022-12-10T01:04:11;13.55;;;6.60;;
22937;SDS011;11634;42.734;23.298;2022-12-10T01:09:12;15.38;;;5.82;;
22937;SDS011;11634;42.734;23.298;2022-12-10T01:11:41;11.00;;;5.57;;
22937;SDS011;11634;42.734;23.298;2022-12-10T01:14:11;12.20;;;5.45;;
22937;SDS011;11634;42.734;23.298;2022-12-10T01:16:39;16.75;;;6.70;;
22937;SDS011;11634;42.734;23.298;2022-12-10T01:19:05;13.98;;;6.07;;
22937;SDS011;11634;42.734;23.298;2022-12-10T01:21:33;13.50;;;5.95;;
22937;SDS011;11634;42.734;23.298;2022-12-10T01:24:00;9.73;;;5.40;;
22937;SDS011;11634;42.734;23.298;2022-12-10T01:26:26;11.32;;;5.43;;
22937;SDS011;11634;42.734;23.298;2022-12-10T01:28:54;12.68;;;6.15;;
22937;SDS011;11634;42.734;23.298;2022-12-10T01:31:25;11.40;;;5.43;;
22937;SDS011;11634;42.734;23.298;2022-12-10T01:33:53;12.48;;;5.28;;
22937;SDS011;11634;42.734;23.298;2022-12-10T01:36:21;13.18;;;5.10;;
22937;SDS011;11634;42.734;23.298;2022-12-10T01:38:50;10.05;;;5.90;;
22937;SDS011;11634;42.734;23.298;2022-12-10T01:41:21;14.85;;;6.43;;
22937;SDS011;11634;42.734;23.298;2022-12-10T01:46:23;11.38;;;5.30;;
22937;SDS011;11634;42.734;23.298;2022-12-10T01:48:51;17.90;;;6.38;;
22937;SDS011;11634;42.734;23.298;2022-12-10T01:51:17;10.48;;;5.15;;
22937;SDS011;11634;42.734;23.298;2022-12-10T01:53:45;14.32;;;6.15;;
22937;SDS011;11634;42.734;23.298;2022-12-10T01:56:13;9.30;;;5.55;;
22937;SDS011;11634;42.734;23.298;2022-12-10T01:58:41;11.57;;;6.40;;
22937;SDS011;11634;42.734;23.298;2022-12-10T02:01:09;15.20;;;7.45;;
22937;SDS011;11634;42.734;23.298;2022-12-10T02:03:50;14.32;;;6.20;;
22937;SDS011;11634;42.734;23.298;2022-12-10T02:09:27;10.63;;;6.55;;
22937;SDS011;11634;42.734;23.298;2022-12-10T02:20:14;18.85;;;8.80;;
22937;SDS011;11634;42.734;23.298;2022-12-10T02:22:49;16.65;;;8.63;;
22937;SDS011;11634;42.734;23.298;2022-12-10T02:25:19;18.88;;;9.00;;
22937;SDS011;11634;42.734;23.298;2022-12-10T02:30:41;19.13;;;8.82;;
22937;SDS011;11634;42.734;23.298;2022-12-10T02:33:08;15.75;;;9.27;;
22937;SDS011;11634;42.734;23.298;2022-12-10T02:35:34;18.73;;;9.65;;
22937;SDS011;11634;42.734;23.298;2022-12-10T02:38:09;14.27;;;9.40;;
22937;SDS011;11634;42.734;23.298;2022-12-10T02:40:39;14.13;;;9.23;;
22937;SDS011;11634;42.734;23.298;2022-12-10T02:43:12;17.48;;;9.35;;
22937;SDS011;11634;42.734;23.298;2022-12-10T02:45:39;18.88;;;9.90;;
22937;SDS011;11634;42.734;23.298;2022-12-10T02:48:09;20.42;;;10.55;;
22937;SDS011;11634;42.734;23.298;2022-12-10T02:50:40;17.30;;;10.80;;
22937;SDS011;11634;42.734;23.298;2022-12-10T02:53:06;20.30;;;10.30;;
22937;SDS011;11634;42.734;23.298;2022-12-10T02:55:38;18.75;;;11.10;;
22937;SDS011;11634;42.734;23.298;2022-12-10T02:58:17;16.85;;;9.02;;
22937;SDS011;11634;42.734;23.298;2022-12-10T03:01:37;15.63;;;7.93;;
22937;SDS011;11634;42.734;23.298;2022-12-10T03:03:52;12.73;;;7.97;;
22937;SDS011;11634;42.734;23.298;2022-12-10T03:06:27;15.68;;;8.85;;
22937;SDS011;11634;42.734;23.298;2022-12-10T03:09:01;16.45;;;8.43;;
22937;SDS011;11634;42.734;23.298;2022-12-10T03:11:31;15.80;;;8.73;;
22937;SDS011;11634;42.734;23.298;2022-12-10T03:14:04;16.35;;;9.10;;
22937;SDS011;11634;42.734;23.298;2022-12-10T03:16:37;19.67;;;8.77;;
22937;SDS011;11634;42.734;23.298;2022-12-10T03:19:07;13.73;;;7.63;;
22937;SDS011;11634;42.734;23.298;2022-12-10T03:21:36;17.42;;;8.88;;
22937;SDS011;11634;42.734;23.298;2022-12-10T03:24:07;12.20;;;8.85;;
22937;SDS011;11634;42.734;23.298;2022-12-10T03:26:34;16.50;;;9.50;;
22937;SDS011;11634;42.734;23.298;2022-12-10T03:29:06;13.70;;;8.75;;
22937;SDS011;11634;42.734;23.298;2022-12-10T03:31:57;17.80;;;9.00;;
22937;SDS011;11634;42.734;23.298;2022-12-10T03:34:24;14.57;;;9.05;;
22937;SDS011;11634;42.734;23.298;2022-12-10T03:36:50;18.17;;;10.15;;
22937;SDS011;11634;42.734;23.298;2022-12-10T03:39:16;18.75;;;9.63;;
22937;SDS011;11634;42.734;23.298;2022-12-10T03:41:43;15.90;;;8.82;;
22937;SDS011;11634;42.734;23.298;2022-12-10T03:44:08;16.35;;;9.68;;
22937;SDS011;11634;42.734;23.298;2022-12-10T03:46:34;18.75;;;9.27;;
22937;SDS011;11634;42.734;23.298;2022-12-10T03:49:00;16.63;;;8.85;;
22937;SDS011;11634;42.734;23.298;2022-12-10T03:51:26;16.95;;;9.43;;
22937;SDS011;11634;42.734;23.298;2022-12-10T03:53:52;13.60;;;10.05;;
22937;SDS011;11634;42.734;23.298;2022-12-10T03:56:19;21.00;;;10.45;;
22937;SDS011;11634;42.734;23.298;2022-12-10T03:58:47;15.63;;;10.65;;
22937;SDS011;11634;42.734;23.298;2022-12-10T04:01:13;18.50;;;11.25;;
22937;SDS011;11634;42.734;23.298;2022-12-10T04:03:40;14.35;;;9.70;;
22937;SDS011;11634;42.734;23.298;2022-12-10T04:06:15;22.27;;;11.23;;
22937;SDS011;11634;42.734;23.298;2022-12-10T04:08:43;17.58;;;11.18;;
22937;SDS011;11634;42.734;23.298;2022-12-10T04:11:09;21.15;;;11.57;;
22937;SDS011;11634;42.734;23.298;2022-12-10T04:13:36;15.63;;;11.32;;
22937;SDS011;11634;42.734;23.298;2022-12-10T04:16:23;25.77;;;11.60;;
22937;SDS011;11634;42.734;23.298;2022-12-10T04:19:03;23.25;;;11.13;;
22937;SDS011;11634;42.734;23.298;2022-12-10T04:21:32;12.32;;;10.38;;
22937;SDS011;11634;42.734;23.298;2022-12-10T04:24:21;18.25;;;11.48;;
22937;SDS011;11634;42.734;23.298;2022-12-10T04:27:12;19.77;;;11.70;;
22937;SDS011;11634;42.734;23.298;2022-12-10T04:29:52;20.70;;;11.48;;
22937;SDS011;11634;42.734;23.298;2022-12-10T04:32:19;18.35;;;10.13;;
22937;SDS011;11634;42.734;23.298;2022-12-10T04:34:45;15.43;;;10.52;;
22937;SDS011;11634;42.734;23.298;2022-12-10T04:37:12;19.02;;;11.68;;
22937;SDS011;11634;42.734;23.298;2022-12-10T04:39:37;16.02;;;11.02;;
22937;SDS011;11634;42.734;23.298;2022-12-10T04:42:03;18.80;;;11.13;;
22937;SDS011;11634;42.734;23.298;2022-12-10T04:44:29;16.02;;;10.02;;
22937;SDS011;11634;42.734;23.298;2022-12-10T04:46:55;21.55;;;10.00;;
22937;SDS011;11634;42.734;23.298;2022-12-10T04:49:21;16.50;;;9.50;;
22937;SDS011;11634;42.734;23.298;2022-12-10T04:51:47;17.00;;;10.48;;
22937;SDS011;11634;42.734;23.298;2022-12-10T04:54:13;14.77;;;8.05;;
22937;SDS011;11634;42.734;23.298;2022-12-10T04:56:39;21.50;;;9.68;;
22937;SDS011;11634;42.734;23.298;2022-12-10T04:59:05;15.32;;;9.48;;
22937;SDS011;11634;42.734;23.298;2022-12-10T05:01:31;17.17;;;10.57;;
22937;SDS011;11634;42.734;23.298;2022-12-10T05:04:01;19.70;;;10.05;;
22937;SDS011;11634;42.734;23.298;2022-12-10T05:06:29;16.08;;;10.25;;
22937;SDS011;11634;42.734;23.298;2022-12-10T05:08:55;17.33;;;10.80;;
22937;SDS011;11634;42.734;23.298;2022-12-10T05:11:22;17.85;;;9.68;;
22937;SDS011;11634;42.734;23.298;2022-12-10T05:13:50;15.95;;;9.95;;
22937;SDS011;11634;42.734;23.298;2022-12-10T05:16:17;19.83;;;11.43;;
22937;SDS011;11634;42.734;23.298;2022-12-10T05:18:44;19.42;;;11.23;;
22937;SDS011;11634;42.734;23.298;2022-12-10T05:21:10;18.55;;;11.88;;
22937;SDS011;11634;42.734;23.298;2022-12-10T05:23:40;21.88;;;11.90;;
22937;SDS011;11634;42.734;23.298;2022-12-10T05:28:56;19.90;;;11.98;;
22937;SDS011;11634;42.734;23.298;2022-12-10T05:31:24;22.90;;;12.98;;
22937;SDS011;11634;42.734;23.298;2022-12-10T05:33:52;19.77;;;12.13;;
22937;SDS011;11634;42.734;23.298;2022-12-10T05:36:23;20.17;;;12.23;;
22937;SDS011;11634;42.734;23.298;2022-12-10T05:38:51;18.55;;;12.52;;
22937;SDS011;11634;42.734;23.298;2022-12-10T05:41:19;20.05;;;13.30;;
22937;SDS011;11634;42.734;23.298;2022-12-10T05:43:46;25.95;;;16.27;;
22937;SDS011;11634;42.734;23.298;2022-12-10T05:46:13;23.63;;;17.13;;
22937;SDS011;11634;42.734;23.298;2022-12-10T05:48:43;22.58;;;15.27;;
22937;SDS011;11634;42.734;23.298;2022-12-10T05:51:10;28.85;;;16.90;;
22937;SDS011;11634;42.734;23.298;2022-12-10T05:53:38;24.73;;;16.15;;
22937;SDS011;11634;42.734;23.298;2022-12-10T05:56:05;31.75;;;15.90;;
22937;SDS011;11634;42.734;23.298;2022-12-10T05:58:33;24.58;;;15.30;;
22937;SDS011;11634;42.734;23.298;2022-12-10T06:00:59;25.85;;;15.32;;
22937;SDS011;11634;42.734;23.298;2022-12-10T06:03:28;22.27;;;14.40;;
22937;SDS011;11634;42.734;23.298;2022-12-10T06:05:54;21.90;;;15.30;;
22937;SDS011;11634;42.734;23.298;2022-12-10T06:08:19;25.15;;;14.13;;
22937;SDS011;11634;42.734;23.298;2022-12-10T06:10:45;34.10;;;18.83;;
22937;SDS011;11634;42.734;23.298;2022-12-10T06:13:10;28.63;;;18.55;;
22937;SDS011;11634;42.734;23.298;2022-12-10T06:15:38;31.70;;;20.90;;
22937;SDS011;11634;42.734;23.298;2022-12-10T06:18:05;35.25;;;20.77;;
22937;SDS011;11634;42.734;23.298;2022-12-10T06:20:31;25.77;;;17.00;;
22937;SDS011;11634;42.734;23.298;2022-12-10T06:22:57;25.33;;;17.10;;
22937;SDS011;11634;42.734;23.298;2022-12-10T06:25:23;24.08;;;15.90;;
22937;SDS011;11634;42.734;23.298;2022-12-10T06:27:50;18.23;;;9.38;;
22937;SDS011;11634;42.734;23.298;2022-12-10T06:30:15;21.25;;;14.60;;
22937;SDS011;11634;42.734;23.298;2022-12-10T06:32:44;20.73;;;14.70;;
22937;SDS011;11634;42.734;23.298;2022-12-10T06:35:11;22.02;;;14.82;;
22937;SDS011;11634;42.734;23.298;2022-12-10T06:37:36;24.60;;;14.70;;
22937;SDS011;11634;42.734;23.298;2022-12-10T06:40:03;21.20;;;13.90;;
22937;SDS011;11634;42.734;23.298;2022-12-10T06:42:29;23.15;;;13.43;;
22937;SDS011;11634;42.734;23.298;2022-12-10T06:44:56;24.80;;;16.60;;
22937;SDS011;11634;42.734;23.298;2022-12-10T06:47:23;22.27;;;16.38;;
22937;SDS011;11634;42.734;23.298;2022-12-10T06:49:48;20.98;;;15.10;;
22937;SDS011;11634;42.734;23.298;2022-12-10T06:52:14;26.00;;;16.27;;
22937;SDS011;11634;42.734;23.298;2022-12-10T06:54:40;22.52;;;17.08;;
22937;SDS011;11634;42.734;23.298;2022-12-10T06:57:05;24.83;;;15.80;;
22937;SDS011;11634;42.734;23.298;2022-12-10T06:59:32;26.27;;;16.35;;
22937;SDS011;11634;42.734;23.298;2022-12-10T07:01:58;25.90;;;16.83;;
22937;SDS011;11634;42.734;23.298;2022-12-10T07:04:23;26.45;;;16.52;;
22937;SDS011;11634;42.734;23.298;2022-12-10T07:06:49;21.95;;;15.30;;
22937;SDS011;11634;42.734;23.298;2022-12-10T07:09:15;24.52;;;16.38;;
22937;SDS011;11634;42.734;23.298;2022-12-10T07:11:41;21.73;;;15.73;;
22937;SDS011;11634;42.734;23.298;2022-12-10T07:14:07;34.97;;;27.65;;
22937;SDS011;11634;42.734;23.298;2022-12-10T07:16:39;60.90;;;50.35;;
22937;SDS011;11634;42.734;23.298;2022-12-10T07:19:05;30.98;;;17.98;;
22937;SDS011;11634;42.734;23.298;2022-12-10T07:21:32;24.98;;;16.98;;
22937;SDS011;11634;42.734;23.298;2022-12-10T07:24:02;23.40;;;15.65;;
22937;SDS011;11634;42.734;23.298;2022-12-10T07:26:31;24.10;;;14.05;;
22937;SDS011;11634;42.734;23.298;2022-12-10T07:28:59;22.15;;;15.52;;
22937;SDS011;11634;42.734;23.298;2022-12-10T07:31:27;27.80;;;17.02;;
22937;SDS011;11634;42.734;23.298;2022-12-10T07:33:54;22.00;;;15.93;;
22937;SDS011;11634;42.734;23.298;2022-12-10T07:36:24;20.80;;;12.73;;
22937;SDS011;11634;42.734;23.298;2022-12-10T07:38:51;13.65;;;9.38;;
22937;SDS011;11634;42.734;23.298;2022-12-10T07:41:22;17.52;;;12.15;;
22937;SDS011;11634;42.734;23.298;2022-12-10T07:43:50;22.27;;;14.05;;
22937;SDS011;11634;42.734;23.298;2022-12-10T07:46:23;18.95;;;12.23;;
22937;SDS011;11634;42.734;23.298;2022-12-10T07:48:50;21.73;;;13.52;;
22937;SDS011;11634;42.734;23.298;2022-12-10T07:51:17;21.63;;;12.85;;
22937;SDS011;11634;42.734;23.298;2022-12-10T07:53:44;21.85;;;15.38;;
22937;SDS011;11634;42.734;23.298;2022-12-10T07:56:10;20.38;;;15.18;;
22937;SDS011;11634;42.734;23.298;2022-12-10T07:58:37;27.70;;;16.42;;
22937;SDS011;11634;42.734;23.298;2022-12-10T08:01:08;24.30;;;14.93;;
22937;SDS011;11634;42.734;23.298;2022-12-10T08:03:34;30.00;;;18.60;;
22937;SDS011;11634;42.734;23.298;2022-12-10T08:06:01;24.80;;;16.08;;
22937;SDS011;11634;42.734;23.298;2022-12-10T08:08:28;23.33;;;16.17;;
22937;SDS011;11634;42.734;23.298;2022-12-10T08:10:54;19.42;;;13.73;;
22937;SDS011;11634;42.734;23.298;2022-12-10T08:13:26;18.80;;;13.38;;
22937;SDS011;11634;42.734;23.298;2022-12-10T08:15:53;18.83;;;13.05;;
22937;SDS011;11634;42.734;23.298;2022-12-10T08:18:20;19.10;;;13.48;;
22937;SDS011;11634;42.734;23.298;2022-12-10T08:20:46;24.00;;;15.45;;
22937;SDS011;11634;42.734;23.298;2022-12-10T08:23:12;22.05;;;15.43;;
22937;SDS011;11634;42.734;23.298;2022-12-10T08:25:38;18.45;;;15.45;;
22937;SDS011;11634;42.734;23.298;2022-12-10T08:28:04;22.60;;;14.13;;
22937;SDS011;11634;42.734;23.298;2022-12-10T08:30:31;20.42;;;12.80;;
22937;SDS011;11634;42.734;23.298;2022-12-10T08:32:57;19.40;;;12.70;;
22937;SDS011;11634;42.734;23.298;2022-12-10T08:35:24;20.27;;;12.98;;
22937;SDS011;11634;42.734;23.298;2022-12-10T08:37:49;17.58;;;12.32;;
22937;SDS011;11634;42.734;23.298;2022-12-10T08:40:15;14.18;;;8.95;;
22937;SDS011;11634;42.734;23.298;2022-12-10T08:42:42;16.23;;;10.75;;
22937;SDS011;11634;42.734;23.298;2022-12-10T08:45:09;16.38;;;9.27;;
22937;SDS011;11634;42.734;23.298;2022-12-10T08:47:35;13.68;;;7.75;;
22937;SDS011;11634;42.734;23.298;2022-12-10T08:50:00;14.05;;;9.02;;
22937;SDS011;11634;42.734;23.298;2022-12-10T08:52:26;10.38;;;7.68;;
22937;SDS011;11634;42.734;23.298;2022-12-10T08:54:54;11.88;;;7.63;;
22937;SDS011;11634;42.734;23.298;2022-12-10T08:57:20;11.52;;;7.55;;
22937;SDS011;11634;42.734;23.298;2022-12-10T08:59:47;10.75;;;7.43;;
22937;SDS011;11634;42.734;23.298;2022-12-10T09:02:16;11.07;;;7.35;;
22937;SDS011;11634;42.734;23.298;2022-12-10T09:04:43;9.00;;;7.65;;
22937;SDS011;11634;42.734;23.298;2022-12-10T09:07:12;11.07;;;8.30;;
22937;SDS011;11634;42.734;23.298;2022-12-10T09:09:40;12.10;;;7.70;;
22937;SDS011;11634;42.734;23.298;2022-12-10T09:12:07;17.77;;;9.25;;
22937;SDS011;11634;42.734;23.298;2022-12-10T09:14:34;12.55;;;7.43;;
22937;SDS011;11634;42.734;23.298;2022-12-10T09:17:02;9.82;;;7.05;;
22937;SDS011;11634;42.734;23.298;2022-12-10T09:19:31;14.00;;;6.43;;
22937;SDS011;11634;42.734;23.298;2022-12-10T09:22:00;13.23;;;7.03;;
22937;SDS011;11634;42.734;23.298;2022-12-10T09:24:26;11.60;;;8.30;;
22937;SDS011;11634;42.734;23.298;2022-12-10T09:26:55;17.33;;;8.00;;
22937;SDS011;11634;42.734;23.298;2022-12-10T09:29:27;17.17;;;10.15;;
22937;SDS011;11634;42.734;23.298;2022-12-10T09:31:54;9.13;;;7.13;;
22937;SDS011;11634;42.734;23.298;2022-12-10T09:34:21;11.32;;;6.57;;
22937;SDS011;11634;42.734;23.298;2022-12-10T09:36:48;12.10;;;7.22;;
22937;SDS011;11634;42.734;23.298;2022-12-10T09:39:15;12.98;;;7.93;;
22937;SDS011;11634;42.734;23.298;2022-12-10T09:42:00;9.73;;;7.65;;
22937;SDS011;11634;42.734;23.298;2022-12-10T09:47:40;10.27;;;7.32;;
22937;SDS011;11634;42.734;23.298;2022-12-10T09:50:20;9.38;;;6.35;;
22937;SDS011;11634;42.734;23.298;2022-12-10T09:52:50;15.77;;;7.57;;
22937;SDS011;11634;42.734;23.298;2022-12-10T09:55:25;12.70;;;7.50;;
22937;SDS011;11634;42.734;23.298;2022-12-10T09:58:04;7.53;;;5.60;;
22937;SDS011;11634;42.734;23.298;2022-12-10T10:03:09;9.68;;;5.90;;
22937;SDS011;11634;42.734;23.298;2022-12-10T10:05:40;8.80;;;5.30;;
22937;SDS011;11634;42.734;23.298;2022-12-10T10:08:13;6.38;;;4.55;;
22937;SDS011;11634;42.734;23.298;2022-12-10T10:10:48;9.35;;;5.28;;
22937;SDS011;11634;42.734;23.298;2022-12-10T10:13:15;9.20;;;5.97;;
22937;SDS011;11634;42.734;23.298;2022-12-10T10:15:51;8.95;;;6.55;;
22937;SDS011;11634;42.734;23.298;2022-12-10T10:18:34;9.38;;;6.20;;
22937;SDS011;11634;42.734;23.298;2022-12-10T10:21:09;12.07;;;5.80;;
22937;SDS011;11634;42.734;23.298;2022-12-10T10:23:43;9.85;;;6.88;;
22937;SDS011;11634;42.734;23.298;2022-12-10T10:26:10;8.25;;;5.50;;
22937;SDS011;11634;42.734;23.298;2022-12-10T10:28:35;8.02;;;5.55;;
22937;SDS011;11634;42.734;23.298;2022-12-10T10:31:07;8.73;;;5.40;;
22937;SDS011;11634;42.734;23.298;2022-12-10T10:33:53;9.65;;;5.85;;
22937;SDS011;11634;42.734;23.298;2022-12-10T10:36:25;10.52;;;6.03;;
22937;SDS011;11634;42.734;23.298;2022-12-10T10:38:54;14.93;;;5.78;;
22937;SDS011;11634;42.734;23.298;2022-12-10T10:41:20;13.30;;;7.20;;
22937;SDS011;11634;42.734;23.298;2022-12-10T10:43:46;10.73;;;6.55;;
22937;SDS011;11634;42.734;23.298;2022-12-10T10:48:38;11.82;;;6.05;;
22937;SDS011;11634;42.734;23.298;2022-12-10T10:58:52;6.05;;;4.43;;
22937;SDS011;11634;42.734;23.298;2022-12-10T11:04:16;6.50;;;4.40;;
22937;SDS011;11634;42.734;23.298;2022-12-10T11:06:51;8.95;;;4.97;;
22937;SDS011;11634;42.734;23.298;2022-12-10T11:09:26;10.88;;;5.30;;
22937;SDS011;11634;42.734;23.298;2022-12-10T11:12:04;6.95;;;4.70;;
22937;SDS011;11634;42.734;23.298;2022-12-10T11:14:33;6.07;;;4.78;;
22937;SDS011;11634;42.734;23.298;2022-12-10T11:17:20;10.25;;;6.05;;
22937;SDS011;11634;42.734;23.298;2022-12-10T11:22:53;8.52;;;4.80;;
22937;SDS011;11634;42.734;23.298;2022-12-10T11:25:24;9.80;;;5.38;;
22937;SDS011;11634;42.734;23.298;2022-12-10T11:27:58;8.93;;;4.88;;
22937;SDS011;11634;42.734;23.298;2022-12-10T11:30:29;8.32;;;4.95;;
22937;SDS011;11634;42.734;23.298;2022-12-10T11:33:15;6.28;;;4.47;;
22937;SDS011;11634;42.734;23.298;2022-12-10T11:44:21;7.65;;;5.63;;
22937;SDS011;11634;42.734;23.298;2022-12-10T11:49:52;9.00;;;4.93;;
22937;SDS011;11634;42.734;23.298;2022-12-10T11:52:40;12.73;;;5.25;;
22937;SDS011;11634;42.734;23.298;2022-12-10T12:09:14;6.45;;;4.57;;
22937;SDS011;11634;42.734;23.298;2022-12-10T12:12:03;7.72;;;4.53;;
22937;SDS011;11634;42.734;23.298;2022-12-10T12:14:43;8.48;;;4.80;;
22937;SDS011;11634;42.734;23.298;2022-12-10T12:17:24;11.00;;;5.05;;
22937;SDS011;11634;42.734;23.298;2022-12-10T12:19:59;8.20;;;4.70;;
22937;SDS011;11634;42.734;23.298;2022-12-10T12:22:33;5.78;;;4.32;;
22937;SDS011;11634;42.734;23.298;2022-12-10T12:25:05;7.28;;;4.90;;
22937;SDS011;11634;42.734;23.298;2022-12-10T12:27:48;7.18;;;5.25;;
22937;SDS011;11634;42.734;23.298;2022-12-10T12:30:19;6.50;;;4.38;;
22937;SDS011;11634;42.734;23.298;2022-12-10T12:38:29;7.50;;;5.25;;
22937;SDS011;11634;42.734;23.298;2022-12-10T12:41:05;7.93;;;4.60;;
22937;SDS011;11634;42.734;23.298;2022-12-10T12:44:03;7.32;;;4.72;;
22937;SDS011;11634;42.734;23.298;2022-12-10T12:46:39;9.30;;;4.85;;
22937;SDS011;11634;42.734;23.298;2022-12-10T12:49:28;7.43;;;4.85;;
22937;SDS011;11634;42.734;23.298;2022-12-10T12:52:02;7.32;;;5.55;;
22937;SDS011;11634;42.734;23.298;2022-12-10T12:54:46;11.23;;;5.72;;
22937;SDS011;11634;42.734;23.298;2022-12-10T13:00:00;10.38;;;6.10;;
22937;SDS011;11634;42.734;23.298;2022-12-10T13:02:47;8.70;;;6.18;;
22937;SDS011;11634;42.734;23.298;2022-12-10T13:05:36;17.42;;;11.98;;
22937;SDS011;11634;42.734;23.298;2022-12-10T13:10:58;11.13;;;6.32;;
22937;SDS011;11634;42.734;23.298;2022-12-10T13:13:37;7.00;;;4.82;;
22937;SDS011;11634;42.734;23.298;2022-12-10T13:19:46;8.18;;;5.53;;
22937;SDS011;11634;42.734;23.298;2022-12-10T13:24:18;12.45;;;6.00;;
22937;SDS011;11634;42.734;23.298;2022-12-10T13:32:18;11.43;;;6.90;;
22937;SDS011;11634;42.734;23.298;2022-12-10T13:34:43;10.05;;;5.78;;
22937;SDS011;11634;42.734;23.298;2022-12-10T13:42:39;13.30;;;7.28;;
22937;SDS011;11634;42.734;23.298;2022-12-10T13:45:29;13.95;;;8.20;;
22937;SDS011;11634;42.734;23.298;2022-12-10T13:59:47;6.88;;;5.72;;
22937;SDS011;11634;42.734;23.298;2022-12-10T14:05:18;8.90;;;4.90;;
22937;SDS011;11634;42.734;23.298;2022-12-10T14:07:59;13.93;;;8.95;;
22937;SDS011;11634;42.734;23.298;2022-12-10T14:10:30;17.73;;;10.60;;
22937;SDS011;11634;42.734;23.298;2022-12-10T14:13:11;16.48;;;11.73;;
22937;SDS011;11634;42.734;23.298;2022-12-10T14:15:46;20.05;;;10.93;;
22937;SDS011;11634;42.734;23.298;2022-12-10T14:18:20;18.23;;;11.18;;
22937;SDS011;11634;42.734;23.298;2022-12-10T14:20:49;17.48;;;10.23;;
22937;SDS011;11634;42.734;23.298;2022-12-10T14:23:25;17.67;;;10.63;;
22937;SDS011;11634;42.734;23.298;2022-12-10T14:25:58;18.88;;;11.80;;
22937;SDS011;11634;42.734;23.298;2022-12-10T14:28:44;16.50;;;9.93;;
22937;SDS011;11634;42.734;23.298;2022-12-10T14:34:14;17.30;;;11.70;;
22937;SDS011;11634;42.734;23.298;2022-12-10T14:36:45;28.48;;;13.15;;
22937;SDS011;11634;42.734;23.298;2022-12-10T14:39:14;18.75;;;11.07;;
22937;SDS011;11634;42.734;23.298;2022-12-10T14:41:46;18.23;;;12.15;;
22937;SDS011;11634;42.734;23.298;2022-12-10T14:44:33;15.05;;;9.32;;
22937;SDS011;11634;42.734;23.298;2022-12-10T14:49:41;16.10;;;6.90;;
22937;SDS011;11634;42.734;23.298;2022-12-10T14:52:15;11.30;;;6.93;;
22937;SDS011;11634;42.734;23.298;2022-12-10T14:54:48;15.25;;;8.07;;
22937;SDS011;11634;42.734;23.298;2022-12-10T14:57:21;14.98;;;8.10;;
22937;SDS011;11634;42.734;23.298;2022-12-10T15:02:33;13.18;;;8.07;;
22937;SDS011;11634;42.734;23.298;2022-12-10T15:05:03;13.00;;;7.70;;
22937;SDS011;11634;42.734;23.298;2022-12-10T15:07:40;12.50;;;7.95;;
22937;SDS011;11634;42.734;23.298;2022-12-10T15:10:07;12.63;;;7.97;;
22937;SDS011;11634;42.734;23.298;2022-12-10T15:12:45;11.20;;;7.15;;
22937;SDS011;11634;42.734;23.298;2022-12-10T15:20:25;11.45;;;7.57;;
22937;SDS011;11634;42.734;23.298;2022-12-10T15:28:23;15.10;;;7.90;;
22937;SDS011;11634;42.734;23.298;2022-12-10T15:30:54;12.25;;;8.07;;
22937;SDS011;11634;42.734;23.298;2022-12-10T15:33:24;15.20;;;8.52;;
22937;SDS011;11634;42.734;23.298;2022-12-10T15:35:58;12.55;;;8.70;;
22937;SDS011;11634;42.734;23.298;2022-12-10T15:38:25;13.43;;;9.82;;
22937;SDS011;11634;42.734;23.298;2022-12-10T15:40:56;18.42;;;11.07;;
22937;SDS011;11634;42.734;23.298;2022-12-10T15:43:26;14.20;;;10.48;;
22937;SDS011;11634;42.734;23.298;2022-12-10T15:45:56;29.02;;;11.80;;
22937;SDS011;11634;42.734;23.298;2022-12-10T15:48:23;21.23;;;12.35;;
22937;SDS011;11634;42.734;23.298;2022-12-10T15:50:51;17.15;;;11.00;;
22937;SDS011;11634;42.734;23.298;2022-12-10T15:53:25;15.15;;;10.43;;
22937;SDS011;11634;42.734;23.298;2022-12-10T15:55:53;16.35;;;9.75;;
22937;SDS011;11634;42.734;23.298;2022-12-10T15:58:18;16.52;;;10.27;;
22937;SDS011;11634;42.734;23.298;2022-12-10T16:00:45;17.08;;;9.63;;
22937;SDS011;11634;42.734;23.298;2022-12-10T16:03:15;12.38;;;9.13;;
22937;SDS011;11634;42.734;23.298;2022-12-10T16:05:43;12.38;;;8.50;;
22937;SDS011;11634;42.734;23.298;2022-12-10T16:08:13;13.73;;;9.95;;
22937;SDS011;11634;42.734;23.298;2022-12-10T16:10:43;14.95;;;10.15;;
22937;SDS011;11634;42.734;23.298;2022-12-10T16:13:20;17.30;;;10.60;;
22937;SDS011;11634;42.734;23.298;2022-12-10T16:15:48;17.00;;;10.98;;
22937;SDS011;11634;42.734;23.298;2022-12-10T16:18:14;18.30;;;10.95;;
22937;SDS011;11634;42.734;23.298;2022-12-10T16:20:40;19.70;;;13.65;;
22937;SDS011;11634;42.734;23.298;2022-12-10T16:23:06;19.50;;;12.80;;
22937;SDS011;11634;42.734;23.298;2022-12-10T16:25:32;22.33;;;14.63;;
22937;SDS011;11634;42.734;23.298;2022-12-10T16:27:59;19.85;;;14.20;;
22937;SDS011;11634;42.734;23.298;2022-12-10T16:30:28;23.25;;;14.98;;
22937;SDS011;11634;42.734;23.298;2022-12-10T16:33:00;22.63;;;15.60;;
22937;SDS011;11634;42.734;23.298;2022-12-10T16:35:27;23.13;;;13.70;;
22937;SDS011;11634;42.734;23.298;2022-12-10T16:37:53;22.98;;;16.02;;
22937;SDS011;11634;42.734;23.298;2022-12-10T16:40:24;23.15;;;16.00;;
22937;SDS011;11634;42.734;23.298;2022-12-10T16:42:53;21.50;;;15.07;;
22937;SDS011;11634;42.734;23.298;2022-12-10T16:47:47;26.95;;;17.13;;